Topi Weather



Topi's Current Weather

Temprature 33.33o few clouds

few clouds

Rain: 0 %

Min Temprature33.33o
Max Temprature33.33o
Humidity33
Wind Speed0.45 m/h
Sun Rise05:13:42
Sun Set18:58:18
Current Time: 08-May-2021 16:11:08
Lat/Lon: 34.0704, 72.6236




Topi's Geo Location



Topi's Weather Forecast

Time Overall Temp Min Temp Max Temp Humidity Wind Speed Rain
08-May-2021 (Sat)
17:00:00 few clouds 33.330 33.330 33.840 33 0.73 m/h 0 %
20:00:00 few clouds 30.900 26.040 30.900 38 4.47 m/h 0 %
23:00:00 broken clouds 27.470 24.540 27.470 42 3.65 m/h 0 %
09-May-2021 (Sun)
02:00:00 broken clouds 23.800 23.800 23.800 46 2.23 m/h 0 %
05:00:00 broken clouds 22.670 22.670 22.670 48 2.73 m/h 0 %
08:00:00 few clouds 28.240 28.240 28.240 34 1.88 m/h 0 %
11:00:00 clear sky 33.520 33.520 33.520 25 0.89 m/h 0 %
14:00:00 clear sky 36.050 36.050 36.050 20 2.65 m/h 0 %
17:00:00 clear sky 35.900 35.900 35.900 19 2.29 m/h 0 %
20:00:00 clear sky 30.880 30.880 30.880 25 0.06 m/h 0 %
23:00:00 few clouds 27.250 27.250 27.250 36 2.48 m/h 0 %
10-May-2021 (Mon)
02:00:00 broken clouds 25.180 25.180 25.180 43 0.62 m/h 0 %
05:00:00 light rain 22.810 22.810 22.810 56 2.26 m/h 68 %
08:00:00 light rain 27.530 27.530 27.530 42 1.17 m/h 108 %
11:00:00 overcast clouds 32.920 32.920 32.920 28 1.3 m/h 0 %
14:00:00 broken clouds 35.720 35.720 35.720 23 2.45 m/h 0 %
17:00:00 scattered clouds 35.910 35.910 35.910 22 2.94 m/h 0 %
20:00:00 clear sky 30.830 30.830 30.830 30 2.2 m/h 0 %
23:00:00 few clouds 27.870 27.870 27.870 37 2.17 m/h 0 %
11-May-2021 (Tue)
02:00:00 scattered clouds 25.760 25.760 25.760 45 2.65 m/h 0 %
05:00:00 light rain 24.700 24.700 24.700 46 2.68 m/h 12 %
08:00:00 light rain 28.520 28.520 28.520 39 1.18 m/h 99 %
11:00:00 light rain 34.480 34.480 34.480 26 1.27 m/h 17 %
14:00:00 few clouds 37.480 37.480 37.480 20 3.22 m/h 0 %
17:00:00 few clouds 37.200 37.200 37.200 20 3.33 m/h 0 %
20:00:00 light rain 26.900 26.900 26.900 44 3.82 m/h 21 %
23:00:00 moderate rain 22.260 22.260 22.260 70 5.89 m/h 306 %
12-May-2021 (Wed)
02:00:00 light rain 22.030 22.030 22.030 71 1.95 m/h 176 %
05:00:00 light rain 21.370 21.370 21.370 72 2.24 m/h 48 %
08:00:00 light rain 24.480 24.480 24.480 55 2.01 m/h 205 %
11:00:00 light rain 27.760 27.760 27.760 43 1.27 m/h 90 %
14:00:00 broken clouds 31.800 31.800 31.800 33 1.01 m/h 0 %
17:00:00 light rain 31.160 31.160 31.160 35 1.66 m/h 23 %
20:00:00 moderate rain 23.520 23.520 23.520 67 3.72 m/h 326 %
23:00:00 light rain 22.430 22.430 22.430 71 2.06 m/h 234 %
13-May-2021 (Thu)
02:00:00 light rain 21.440 21.440 21.440 73 1.18 m/h 117 %
05:00:00 light rain 20.250 20.250 20.250 78 1.77 m/h 281 %
08:00:00 light rain 22.930 22.930 22.930 61 1.5 m/h 183 %
11:00:00 light rain 28.130 28.130 28.130 40 2.4 m/h 20 %
14:00:00 overcast clouds 30.020 30.020 30.020 30 3.47 m/h 0 %

Famous Cities (60)